Time;durP1;ratioP1;P1;durP2;ratioP2;P2;SDS_P1;SDS_P2;PMS_P1;PMS_P2;Temp;Humidity;BMP_temperature;BMP_pressure;BME280_temperature;BME280_humidity;BME280_pressure;Samples;Min_cycle;Max_cycle;Signal;HPM_P1;HPM_P2
2023/10/21 00:04:46;;;;;;;9.40;7.78;;;;;;;8.75;100.00;98686.38;10546725;27;20055;-64
2023/10/21 00:10:08;;;;;;;10.30;8.13;;;;;;;8.76;100.00;98682.06;10559332;27;20051;-64
2023/10/21 00:15:29;;;;;;;11.75;7.90;;;;;;;8.82;100.00;98685.13;10542515;27;20040;-64
2023/10/21 00:20:56;;;;;;;11.77;8.70;;;;;;;8.85;100.00;98678.94;10555140;27;20043;-63
2023/10/21 00:26:18;;;;;;;12.65;8.77;;;;;;;8.89;100.00;98693.34;10548813;27;20055;-61
2023/10/21 00:31:43;;;;;;;17.17;9.80;;;;;;;8.88;100.00;98687.34;10547605;27;20146;-63
2023/10/21 00:37:07;;;;;;;13.77;9.27;;;;;;;8.95;100.00;98696.38;10545444;27;20036;-63
2023/10/21 00:42:28;;;;;;;14.23;9.55;;;;;;;8.97;100.00;98697.13;10546722;27;20496;-64
2023/10/21 00:47:50;;;;;;;14.95;10.48;;;;;;;8.99;100.00;98703.03;10550569;27;20058;-63
2023/10/21 00:53:12;;;;;;;12.50;9.52;;;;;;;9.02;100.00;98709.78;10546266;27;20388;-63
2023/10/21 00:58:35;;;;;;;15.32;10.35;;;;;;;9.04;100.00;98724.25;10548964;27;20094;-63
2023/10/21 01:03:57;;;;;;;15.07;10.30;;;;;;;9.06;100.00;98722.38;10547693;27;20403;-63
2023/10/21 01:09:19;;;;;;;14.70;10.10;;;;;;;9.09;100.00;98722.22;10556246;27;20043;-63
2023/10/21 01:14:40;;;;;;;15.02;10.68;;;;;;;9.12;100.00;98731.53;10532467;27;20047;-63
2023/10/21 01:20:06;;;;;;;16.77;11.63;;;;;;;9.14;100.00;98727.94;10533590;27;20324;-63
2023/10/21 01:25:28;;;;;;;17.43;9.93;;;;;;;9.17;100.00;98741.59;10545520;27;20052;-63
2023/10/21 01:30:49;;;;;;;14.48;11.32;;;;;;;9.21;100.00;98748.25;10541764;27;20400;-63
2023/10/21 01:36:11;;;;;;;16.92;11.23;;;;;;;9.23;100.00;98754.16;10545587;27;20050;-63
2023/10/21 01:41:33;;;;;;;23.63;11.20;;;;;;;9.25;100.00;98750.53;10539976;27;20058;-67
2023/10/21 01:46:55;;;;;;;21.40;11.80;;;;;;;9.28;100.00;98762.44;10546415;27;20657;-63
2023/10/21 01:52:16;;;;;;;23.98;11.52;;;;;;;9.31;100.00;98759.69;10544512;27;20043;-63
2023/10/21 01:57:38;;;;;;;20.40;12.30;;;;;;;9.31;100.00;98762.25;10539662;27;20408;-63
2023/10/21 02:03:00;;;;;;;25.55;13.02;;;;;;;9.33;100.00;98781.06;10551517;27;20050;-63
2023/10/21 02:08:22;;;;;;;25.13;13.07;;;;;;;9.37;100.00;98772.22;10546703;27;20090;-63
2023/10/21 02:13:43;;;;;;;24.05;12.98;;;;;;;9.37;100.00;98778.22;10552645;27;20591;-64
2023/10/21 02:19:05;;;;;;;25.20;13.18;;;;;;;9.38;100.00;98789.38;10556128;28;20562;-63
2023/10/21 02:24:26;;;;;;;25.67;13.75;;;;;;;9.39;100.00;98797.03;10542676;28;20047;-63
2023/10/21 02:29:49;;;;;;;34.13;13.82;;;;;;;9.40;100.00;98796.09;10552202;28;20127;-63
2023/10/21 02:35:12;;;;;;;34.22;14.52;;;;;;;9.40;100.00;98803.00;10537179;28;20040;-63
2023/10/21 02:40:34;;;;;;;48.00;14.55;;;;;;;9.37;100.00;98816.94;10549658;28;20044;-63
2023/10/21 02:45:55;;;;;;;24.60;14.23;;;;;;;9.38;100.00;98825.50;10549300;28;20058;-63
2023/10/21 02:51:17;;;;;;;30.58;13.93;;;;;;;9.42;100.00;98821.81;10550115;28;20051;-63
2023/10/21 02:56:43;;;;;;;22.92;14.63;;;;;;;9.42;100.00;98829.56;10543272;28;20134;-63
2023/10/21 03:02:04;;;;;;;40.37;14.57;;;;;;;9.44;100.00;98830.31;10536224;28;20040;-63
2023/10/21 03:07:26;;;;;;;36.28;14.38;;;;;;;9.46;100.00;98828.47;10529702;28;20480;-64
2023/10/21 03:12:48;;;;;;;40.95;15.32;;;;;;;9.44;100.00;98835.47;10550738;28;20037;-63
2023/10/21 03:18:09;;;;;;;46.75;14.40;;;;;;;9.45;100.00;98845.72;10553282;28;20050;-63
2023/10/21 03:23:31;;;;;;;27.90;14.10;;;;;;;9.51;100.00;98852.28;10550713;27;20044;-63
2023/10/21 03:28:53;;;;;;;47.35;16.13;;;;;;;9.52;100.00;98849.59;10554462;27;20077;-64
2023/10/21 03:34:15;;;;;;;41.95;15.55;;;;;;;9.53;100.00;98853.00;10558665;27;20066;-63
2023/10/21 03:39:37;;;;;;;30.45;14.18;;;;;;;9.52;100.00;98859.13;10554515;27;20441;-63
2023/10/21 03:44:59;;;;;;;35.80;15.00;;;;;;;9.55;100.00;98856.34;10550106;27;20039;-63
2023/10/21 03:50:20;;;;;;;39.65;14.68;;;;;;;9.53;100.00;98856.44;10543036;27;20059;-63
2023/10/21 03:55:43;;;;;;;31.80;14.65;;;;;;;9.56;100.00;98870.94;10550805;27;20036;-63
2023/10/21 04:01:05;;;;;;;30.70;14.02;;;;;;;9.58;100.00;98874.22;10548630;27;20051;-63
2023/10/21 04:06:26;;;;;;;28.65;14.20;;;;;;;9.59;100.00;98875.91;10551172;27;20084;-63
2023/10/21 04:11:48;;;;;;;31.63;14.60;;;;;;;9.60;100.00;98882.72;10545494;27;20100;-64
2023/10/21 04:17:10;;;;;;;31.92;15.52;;;;;;;9.65;100.00;98893.66;10540399;27;20050;-63
2023/10/21 04:22:35;;;;;;;29.42;14.95;;;;;;;9.64;100.00;98891.97;10544579;27;20047;-63
2023/10/21 04:27:56;;;;;;;36.83;15.07;;;;;;;9.67;100.00;98900.38;10548652;27;20039;-63
2023/10/21 04:33:18;;;;;;;25.42;14.38;;;;;;;9.68;100.00;98904.63;10544650;27;20063;-64
2023/10/21 04:38:42;;;;;;;30.23;14.05;;;;;;;9.71;100.00;98903.59;10544381;27;20075;-64
2023/10/21 04:44:03;;;;;;;27.63;15.00;;;;;;;9.70;100.00;98925.19;10535890;28;20044;-64
2023/10/21 04:49:25;;;;;;;36.53;15.32;;;;;;;9.72;100.00;98920.78;10540482;27;20386;-64
2023/10/21 04:54:47;;;;;;;29.17;15.48;;;;;;;9.71;100.00;98927.69;10544974;27;20039;-63
2023/10/21 05:00:09;;;;;;;25.85;16.05;;;;;;;9.72;100.00;98933.69;10555586;27;20043;-63
2023/10/21 05:05:30;;;;;;;33.15;15.73;;;;;;;9.73;100.00;98937.91;10550639;27;20051;-63
2023/10/21 05:10:52;;;;;;;29.33;15.38;;;;;;;9.76;100.00;98950.69;10537167;27;20059;-63
2023/10/21 05:16:13;;;;;;;25.83;15.77;;;;;;;9.76;100.00;98955.84;10546756;27;20397;-64
2023/10/21 05:21:35;;;;;;;48.13;16.55;;;;;;;9.75;100.00;98965.34;10554096;27;20504;-63
2023/10/21 05:26:57;;;;;;;28.38;16.30;;;;;;;9.76;100.00;98966.19;10537697;27;20132;-64
2023/10/21 05:32:18;;;;;;;34.17;16.05;;;;;;;9.76;100.00;98976.50;10549868;27;20151;-64
2023/10/21 05:37:40;;;;;;;42.42;17.05;;;;;;;9.76;100.00;98987.66;10540890;27;20104;-64
2023/10/21 05:43:02;;;;;;;29.30;15.77;;;;;;;9.76;100.00;99005.72;10561432;27;20047;-63
2023/10/21 05:48:23;;;;;;;36.03;15.73;;;;;;;9.79;100.00;99018.50;10545890;27;20043;-63
2023/10/21 05:53:46;;;;;;;38.17;16.42;;;;;;;9.80;100.00;99029.63;10548801;27;20071;-63
2023/10/21 05:59:07;;;;;;;37.78;16.25;;;;;;;9.82;100.00;99027.78;10530846;27;20036;-64
2023/10/21 06:04:31;;;;;;;51.00;17.40;;;;;;;9.85;100.00;99045.72;10546242;27;20046;-63
2023/10/21 06:09:53;;;;;;;33.22;16.95;;;;;;;9.86;100.00;99060.28;10548391;27;20131;-64
2023/10/21 06:15:15;;;;;;;44.13;17.77;;;;;;;9.85;100.00;99063.81;10557997;27;20210;-63
2023/10/21 06:20:36;;;;;;;43.97;17.73;;;;;;;9.88;100.00;99066.22;10537457;28;20094;-64
2023/10/21 06:25:58;;;;;;;30.52;17.23;;;;;;;9.91;100.00;99084.13;10550998;28;20052;-64
2023/10/21 06:31:20;;;;;;;30.25;16.25;;;;;;;9.94;100.00;99095.09;10555694;28;20097;-64
2023/10/21 06:36:42;;;;;;;41.75;17.25;;;;;;;10.00;100.00;99106.84;10554700;28;20523;-63
2023/10/21 06:42:05;;;;;;;35.67;17.35;;;;;;;10.04;100.00;99110.94;10553367;28;20058;-63
2023/10/21 06:47:27;;;;;;;33.13;17.25;;;;;;;10.07;100.00;99128.88;10550063;28;20040;-63
2023/10/21 06:52:48;;;;;;;35.78;17.15;;;;;;;10.11;100.00;99127.81;10545188;28;20051;-63
2023/10/21 06:58:11;;;;;;;29.08;17.02;;;;;;;10.15;100.00;99144.81;10550618;27;20051;-63
2023/10/21 07:03:33;;;;;;;34.85;17.25;;;;;;;10.19;100.00;99151.47;10546622;27;20569;-63
2023/10/21 07:08:55;;;;;;;28.90;16.70;;;;;;;10.21;100.00;99160.00;10548399;27;20055;-63
2023/10/21 07:14:16;;;;;;;30.25;16.02;;;;;;;10.21;100.00;99175.50;10557920;27;20542;-64
2023/10/21 07:19:39;;;;;;;32.58;16.52;;;;;;;10.25;100.00;99177.00;10556534;27;20043;-63
2023/10/21 07:25:01;;;;;;;32.25;15.57;;;;;;;10.29;100.00;99182.84;10554724;27;20035;-64
2023/10/21 07:30:24;;;;;;;27.67;15.63;;;;;;;10.31;100.00;99184.41;10554791;27;20043;-63
2023/10/21 07:35:51;;;;;;;33.80;14.75;;;;;;;10.33;100.00;99194.69;10560374;27;20073;-63
2023/10/21 07:41:14;;;;;;;28.85;16.23;;;;;;;10.36;100.00;99200.50;10539844;27;20051;-64
2023/10/21 07:46:35;;;;;;;28.13;16.15;;;;;;;10.38;100.00;99224.53;10553526;27;20040;-64
2023/10/21 07:51:57;;;;;;;30.75;15.35;;;;;;;10.41;100.00;99214.00;10528839;27;20055;-63
2023/10/21 07:57:19;;;;;;;32.08;15.82;;;;;;;10.40;100.00;99233.00;10548462;27;20043;-63
2023/10/21 08:02:41;;;;;;;28.77;14.90;;;;;;;10.49;100.00;99237.69;10548866;27;20036;-64
2023/10/21 08:08:04;;;;;;;29.42;16.13;;;;;;;10.54;100.00;99240.84;10546705;27;20052;-63
2023/10/21 08:13:25;;;;;;;29.40;15.85;;;;;;;10.59;100.00;99253.53;10556374;27;20484;-64
2023/10/21 08:18:47;;;;;;;28.08;14.63;;;;;;;10.63;100.00;99258.44;10543111;27;20036;-64
2023/10/21 08:24:09;;;;;;;25.30;14.63;;;;;;;10.66;100.00;99263.44;10543388;27;20052;-64
2023/10/21 08:29:31;;;;;;;26.55;15.52;;;;;;;10.71;100.00;99263.22;10552415;27;20046;-64
2023/10/21 08:34:52;;;;;;;25.45;14.30;;;;;;;10.74;100.00;99274.22;10553089;27;20044;-63
2023/10/21 08:40:14;;;;;;;25.65;14.45;;;;;;;10.78;100.00;99275.72;10543511;27;20059;-63
2023/10/21 08:45:36;;;;;;;26.02;14.80;;;;;;;10.82;100.00;99287.53;10530089;27;20048;-63
2023/10/21 08:50:59;;;;;;;24.50;13.82;;;;;;;10.87;100.00;99295.91;10549960;27;20040;-63
2023/10/21 08:56:22;;;;;;;25.00;15.13;;;;;;;10.97;100.00;99311.72;10554607;27;20121;-64
2023/10/21 09:01:45;;;;;;;26.48;15.18;;;;;;;11.03;100.00;99317.41;10552042;27;20039;-64
2023/10/21 09:07:12;;;;;;;35.47;15.75;;;;;;;11.13;100.00;99331.47;10548353;27;20044;-64
2023/10/21 09:12:33;;;;;;;28.30;15.77;;;;;;;11.23;100.00;99333.56;10544673;27;20515;-63
2023/10/21 09:17:56;;;;;;;32.35;16.23;;;;;;;11.31;100.00;99339.16;10548798;27;20128;-64
2023/10/21 09:23:18;;;;;;;26.88;15.38;;;;;;;11.38;100.00;99335.28;10548173;27;20093;-63
2023/10/21 09:28:40;;;;;;;26.15;15.15;;;;;;;11.46;100.00;99348.63;10544700;27;20385;-64
2023/10/21 09:34:01;;;;;;;24.63;15.23;;;;;;;11.56;100.00;99357.53;10548837;27;20046;-63
2023/10/21 09:39:44;;;;;;;26.50;15.73;;;;;;;11.59;100.00;99363.38;10544055;27;20040;-64
2023/10/21 09:45:07;;;;;;;28.63;16.00;;;;;;;11.70;100.00;99370.56;10554171;27;20052;-64
2023/10/21 09:50:30;;;;;;;29.17;16.25;;;;;;;11.81;100.00;99363.00;10545778;27;20040;-63
2023/10/21 09:55:53;;;;;;;26.75;16.63;;;;;;;11.93;100.00;99373.50;10543850;27;20055;-64
2023/10/21 10:01:23;;;;;;;31.17;17.17;;;;;;;12.00;100.00;99368.75;10544424;27;20871;-63
2023/10/21 10:06:50;;;;;;;30.88;17.63;;;;;;;12.11;100.00;99387.94;10547111;27;20043;-64
2023/10/21 10:12:19;;;;;;;30.75;19.20;;;;;;;12.25;100.00;99399.28;10530804;27;20051;-63
2023/10/21 10:17:50;;;;;;;28.75;17.80;;;;;;;12.40;100.00;99393.16;10543093;28;20104;-63
2023/10/21 10:23:12;;;;;;;30.77;18.05;;;;;;;12.52;100.00;99400.19;10552468;27;20113;-64
2023/10/21 10:28:34;;;;;;;27.70;17.98;;;;;;;12.65;100.00;99396.78;10538648;28;20557;-63
2023/10/21 10:33:55;;;;;;;29.80;18.23;;;;;;;12.75;100.00;99404.78;10551616;28;20048;-63
2023/10/21 10:39:39;;;;;;;31.00;19.48;;;;;;;12.98;100.00;99415.41;10549464;28;20047;-63
2023/10/21 10:45:01;;;;;;;35.05;20.27;;;;;;;13.05;100.00;99405.53;10551620;28;20052;-64
2023/10/21 10:50:23;;;;;;;26.52;17.67;;;;;;;13.20;100.00;99411.53;10529748;28;20043;-64
2023/10/21 10:55:54;;;;;;;24.88;15.77;;;;;;;13.28;100.00;99414.44;10543844;28;20104;-64
2023/10/21 11:01:27;;;;;;;23.60;16.17;;;;;;;13.44;100.00;99420.34;10548621;28;20066;-63
2023/10/21 11:06:49;;;;;;;24.73;15.65;;;;;;;13.61;100.00;99420.06;10552372;28;20042;-63
2023/10/21 11:12:14;;;;;;;23.98;14.55;;;;;;;13.79;100.00;99426.69;10540196;28;20048;-63
2023/10/21 11:17:36;;;;;;;22.88;14.02;;;;;;;13.87;100.00;99429.59;10530140;28;20043;-63
2023/10/21 11:22:57;;;;;;;20.98;12.05;;;;;;;13.94;100.00;99438.66;10537361;28;20122;-63
2023/10/21 11:28:20;;;;;;;21.02;12.52;;;;;;;14.02;100.00;99439.00;10539637;28;20044;-63
2023/10/21 11:33:41;;;;;;;12.60;8.40;;;;;;;14.26;100.00;99442.56;10542324;28;20042;-63
2023/10/21 11:39:13;;;;;;;9.77;6.45;;;;;;;14.46;100.00;99439.50;10532636;28;20223;-63
2023/10/21 11:44:35;;;;;;;7.80;4.85;;;;;;;14.66;100.00;99451.97;10546712;27;20051;-63
2023/10/21 11:49:58;;;;;;;6.15;4.57;;;;;;;14.81;100.00;99458.75;10552511;27;20468;-64
2023/10/21 12:45:49;;;;;;;5.40;1.20;;;;;;;14.92;100.00;99542.16;10550324;27;20072;-63
2023/10/21 12:51:15;;;;;;;1.30;0.93;;;;;;;14.99;100.00;99555.63;10542166;27;20047;-63
2023/10/21 12:56:38;;;;;;;1.40;1.02;;;;;;;15.01;100.00;99545.91;10542674;27;20567;-63
2023/10/21 13:01:59;;;;;;;1.55;0.82;;;;;;;15.01;100.00;99562.41;10548760;27;20047;-63
2023/10/21 13:07:21;;;;;;;1.98;0.90;;;;;;;15.03;100.00;99575.31;10548674;27;20044;-63
2023/10/21 13:12:43;;;;;;;3.10;0.85;;;;;;;15.13;99.75;99571.97;10539617;27;20044;-63
2023/10/21 13:18:04;;;;;;;2.47;1.10;;;;;;;15.09;100.00;99587.91;10552352;27;20055;-63
2023/10/21 13:23:26;;;;;;;1.70;0.98;;;;;;;15.13;98.46;99598.97;10544334;27;20055;-63
2023/10/21 13:28:48;;;;;;;7.70;1.40;;;;;;;15.18;100.00;99615.13;10545922;27;20047;-64
2023/10/21 13:34:10;;;;;;;2.33;1.10;;;;;;;15.16;100.00;99611.78;10541993;27;20059;-63
2023/10/21 13:39:31;;;;;;;2.67;1.38;;;;;;;15.16;98.56;99624.81;10540101;27;20048;-63
2023/10/21 13:44:53;;;;;;;4.25;1.00;;;;;;;15.24;97.22;99625.94;10538646;27;20467;-63
2023/10/21 13:50:15;;;;;;;1.85;1.00;;;;;;;15.28;96.56;99632.63;10532666;27;20049;-63
2023/10/21 13:55:42;;;;;;;1.50;1.40;;;;;;;15.23;97.86;99646.91;10536851;27;20083;-63
2023/10/21 14:01:09;;;;;;;1.20;1.10;;;;;;;15.14;96.63;99646.59;10535887;27;20158;-63
2023/10/21 14:06:31;;;;;;;1.20;1.02;;;;;;;15.10;95.78;99650.34;10529757;28;20134;-63
2023/10/21 14:11:53;;;;;;;2.58;0.90;;;;;;;15.23;93.71;99647.75;10543228;27;20131;-63
2023/10/21 14:17:15;;;;;;;2.38;1.05;;;;;;;15.17;96.54;99644.72;10544527;27;20100;-62
2023/10/21 14:22:38;;;;;;;2.20;1.00;;;;;;;15.07;97.34;99642.72;10558044;27;20040;-63
2023/10/21 14:28:00;;;;;;;3.17;1.10;;;;;;;15.03;95.77;99662.09;10549413;27;20044;-63
2023/10/21 14:33:25;;;;;;;3.33;1.05;;;;;;;15.01;97.03;99656.19;10548677;28;20051;-63
2023/10/21 14:38:47;;;;;;;3.85;1.33;;;;;;;15.01;96.36;99661.41;10558235;28;20515;-63
2023/10/21 14:44:09;;;;;;;2.85;0.90;;;;;;;15.04;94.83;99662.94;10529989;28;20136;-63
2023/10/21 14:49:31;;;;;;;2.90;1.10;;;;;;;14.99;95.89;99663.28;10554380;28;20139;-63
2023/10/21 14:54:55;;;;;;;5.50;1.15;;;;;;;14.95;95.13;99693.06;10544722;28;20051;-63
2023/10/21 15:00:21;;;;;;;2.38;1.05;;;;;;;14.91;96.98;99686.38;10556565;28;20043;-63
2023/10/21 15:05:44;;;;;;;1.63;1.10;;;;;;;14.88;96.10;99686.59;10552579;28;20051;-63
2023/10/21 15:11:06;;;;;;;3.38;1.30;;;;;;;14.80;98.04;99699.28;10549012;28;20089;-62
2023/10/21 15:16:28;;;;;;;1.92;1.13;;;;;;;14.75;96.77;99695.28;10531972;28;20044;-62
2023/10/21 15:21:49;;;;;;;3.88;1.40;;;;;;;14.72;97.62;99701.53;10551645;27;20043;-63
2023/10/21 15:27:11;;;;;;;5.55;1.50;;;;;;;14.63;100.00;99696.91;10550974;27;20462;-63
2023/10/21 15:32:33;;;;;;;5.65;1.63;;;;;;;14.64;99.78;99710.78;10552982;27;20054;-63
2023/10/21 15:37:55;;;;;;;3.42;1.70;;;;;;;14.67;99.37;99707.97;10533338;27;20047;-63
2023/10/21 15:43:16;;;;;;;6.38;2.25;;;;;;;14.59;100.00;99710.25;10547662;27;20482;-63
2023/10/21 15:48:38;;;;;;;5.55;1.48;;;;;;;14.58;98.20;99714.63;10548666;27;20036;-63
2023/10/21 15:54:00;;;;;;;2.65;1.48;;;;;;;14.52;99.13;99735.81;10549462;27;20044;-63
2023/10/21 15:59:21;;;;;;;4.38;1.60;;;;;;;14.42;99.26;99734.75;10547686;27;20035;-62
2023/10/21 16:04:43;;;;;;;3.20;1.50;;;;;;;14.29;99.76;99746.03;10555897;27;20706;-63
2023/10/21 16:10:05;;;;;;;2.08;1.40;;;;;;;14.18;100.00;99746.66;10553011;27;20660;-63
2023/10/21 16:15:27;;;;;;;3.33;1.80;;;;;;;14.10;100.00;99764.50;10548714;27;20039;-63
2023/10/21 16:20:50;;;;;;;3.97;1.88;;;;;;;14.02;100.00;99784.97;10543057;27;20101;-63
2023/10/21 16:26:12;;;;;;;2.03;1.52;;;;;;;13.92;100.00;99776.03;10545703;27;20149;-63
2023/10/21 16:31:34;;;;;;;5.53;1.90;;;;;;;13.91;100.00;99785.63;10552472;27;20518;-63
2023/10/21 16:36:56;;;;;;;5.60;1.75;;;;;;;13.90;100.00;99796.94;10546789;27;20043;-63
2023/10/21 16:42:20;;;;;;;2.47;1.52;;;;;;;13.88;99.88;99805.78;10543080;27;20055;-63
2023/10/21 16:47:42;;;;;;;4.32;1.85;;;;;;;13.87;100.00;99809.28;10546825;27;20052;-63
2023/10/21 16:53:03;;;;;;;4.90;1.67;;;;;;;13.79;100.00;99822.75;10552325;27;20052;-63
2023/10/21 16:58:25;;;;;;;4.35;1.70;;;;;;;13.78;99.37;99830.63;10547887;27;20047;-63
2023/10/21 17:03:48;;;;;;;3.70;1.83;;;;;;;13.65;100.00;99833.13;10559167;27;20127;-62
2023/10/21 17:09:10;;;;;;;2.83;1.95;;;;;;;13.54;100.00;99842.47;10530284;27;20044;-63
2023/10/21 17:14:31;;;;;;;7.43;2.10;;;;;;;13.47;100.00;99846.34;10550488;27;20047;-63
2023/10/21 17:19:53;;;;;;;3.85;1.90;;;;;;;13.43;100.00;99855.25;10551135;27;20052;-63
2023/10/21 17:25:15;;;;;;;5.07;1.70;;;;;;;13.41;100.00;99857.09;10547705;27;20039;-63
2023/10/21 17:30:36;;;;;;;3.85;1.50;;;;;;;13.45;100.00;99869.00;10534540;27;20035;-63
2023/10/21 17:35:58;;;;;;;4.47;1.58;;;;;;;13.43;100.00;99857.84;10552808;27;20918;-63
2023/10/21 17:41:20;;;;;;;5.65;1.35;;;;;;;13.42;99.20;99869.19;10548463;28;20040;-62
2023/10/21 17:46:43;;;;;;;4.43;1.73;;;;;;;13.37;100.00;99871.22;10552888;27;20047;-63
2023/10/21 17:52:05;;;;;;;5.38;1.80;;;;;;;13.32;98.92;99870.59;10542573;27;20124;-63
2023/10/21 17:57:29;;;;;;;6.13;1.38;;;;;;;13.22;100.00;99883.31;10534017;27;20544;-63
2023/10/21 18:02:52;;;;;;;5.38;1.25;;;;;;;13.18;99.43;99884.41;10549341;27;20548;-63
2023/10/21 18:08:13;;;;;;;8.75;1.83;;;;;;;13.09;98.71;99882.31;10545528;27;20051;-63
2023/10/21 18:13:35;;;;;;;5.65;1.52;;;;;;;13.07;99.13;99884.97;10547604;27;20043;-63
2023/10/21 18:18:57;;;;;;;8.85;2.10;;;;;;;13.00;99.82;99883.59;10544925;27;20039;-63
2023/10/21 18:24:18;;;;;;;7.07;2.08;;;;;;;12.99;99.31;99887.13;10547089;27;20060;-63
2023/10/21 18:29:40;;;;;;;5.20;1.80;;;;;;;13.01;99.34;99893.09;10555176;27;20071;-63
2023/10/21 18:35:01;;;;;;;8.07;1.85;;;;;;;13.03;97.95;99888.69;10550812;28;20039;-63
2023/10/21 18:40:23;;;;;;;5.90;2.78;;;;;;;12.99;96.98;99894.94;10555670;28;20090;-63
2023/10/21 18:45:45;;;;;;;4.50;2.00;;;;;;;13.01;97.80;99889.63;10539087;28;20078;-62
2023/10/21 18:51:07;;;;;;;3.22;1.67;;;;;;;13.00;99.25;99909.56;10545555;28;20148;-63
2023/10/21 18:56:29;;;;;;;6.78;1.50;;;;;;;13.06;95.88;99918.81;10553079;27;20052;-63
2023/10/21 19:01:50;;;;;;;2.60;1.30;;;;;;;13.03;96.44;99914.66;10554113;27;20039;-63
2023/10/21 19:07:13;;;;;;;3.58;1.20;;;;;;;13.04;96.52;99912.88;10535396;27;20516;-63
2023/10/21 19:12:34;;;;;;;4.22;1.42;;;;;;;13.07;95.96;99910.94;10534798;27;20044;-63
2023/10/21 19:17:56;;;;;;;8.13;1.50;;;;;;;13.04;97.26;99905.91;10560330;27;20522;-63
2023/10/21 19:23:18;;;;;;;7.10;1.80;;;;;;;12.99;98.63;99913.09;10559531;27;20050;-63
2023/10/21 19:28:39;;;;;;;4.35;1.35;;;;;;;13.01;98.47;99906.06;10552325;27;20191;-63
2023/10/21 19:34:01;;;;;;;4.72;1.90;;;;;;;12.99;96.57;99905.31;10555124;27;20462;-63
2023/10/21 19:39:26;;;;;;;5.13;1.60;;;;;;;13.03;96.68;99909.47;10543477;27;20382;-63
2023/10/21 19:44:52;;;;;;;8.00;1.70;;;;;;;13.06;94.78;99900.63;10554547;27;20062;-63
2023/10/21 19:50:14;;;;;;;2.58;1.13;;;;;;;13.13;96.46;99905.41;10553200;27;20042;-63
2023/10/21 19:55:36;;;;;;;3.10;1.05;;;;;;;13.13;96.74;99906.34;10557149;27;20048;-63
2023/10/21 20:01:03;;;;;;;5.68;1.27;;;;;;;13.15;94.41;99907.91;10554943;27;20035;-63
2023/10/21 20:06:29;;;;;;;7.03;1.45;;;;;;;13.16;94.00;99906.16;10543513;27;20130;-62
2023/10/21 20:11:50;;;;;;;4.70;1.58;;;;;;;13.11;93.77;99907.25;10547496;27;20171;-62
2023/10/21 20:17:12;;;;;;;6.13;1.48;;;;;;;13.13;92.25;99910.63;10568891;27;20046;-63
2023/10/21 20:22:34;;;;;;;4.43;1.30;;;;;;;13.15;93.36;99923.50;10548301;27;20036;-63
2023/10/21 20:27:55;;;;;;;5.82;1.40;;;;;;;13.10;92.06;99926.38;10550181;27;20059;-62
2023/10/21 20:33:17;;;;;;;4.15;1.45;;;;;;;13.13;92.97;99930.53;10546987;27;20494;-63
2023/10/21 20:38:39;;;;;;;8.25;1.75;;;;;;;13.16;92.42;99943.38;10546809;27;20671;-62
2023/10/21 20:44:00;;;;;;;6.25;1.20;;;;;;;13.17;90.89;99941.63;10553232;27;20039;-63
2023/10/21 20:49:22;;;;;;;6.07;1.45;;;;;;;13.21;91.76;99943.97;10549057;27;20038;-63
2023/10/21 20:54:44;;;;;;;8.13;1.70;;;;;;;13.27;91.17;99947.97;10547953;27;20048;-63
2023/10/21 21:00:06;;;;;;;5.03;1.40;;;;;;;13.28;89.66;99949.66;10556324;27;20372;-63
2023/10/21 21:05:28;;;;;;;9.20;1.30;;;;;;;13.30;90.20;99940.84;10550405;27;20123;-62
2023/10/21 21:10:49;;;;;;;5.85;1.10;;;;;;;13.30;90.30;99938.25;10559050;27;20039;-63
2023/10/21 21:16:11;;;;;;;5.97;1.25;;;;;;;13.30;88.22;99955.59;10559547;27;20085;-62
2023/10/21 21:21:33;;;;;;;4.45;1.27;;;;;;;13.36;88.83;99958.72;10544590;27;20126;-63
2023/10/21 21:26:54;;;;;;;4.53;1.08;;;;;;;13.31;88.69;99959.91;10547280;27;20400;-62
2023/10/21 21:32:16;;;;;;;6.50;1.23;;;;;;;13.28;88.97;99949.66;10540474;27;20035;-63
2023/10/21 21:37:39;;;;;;;4.15;1.25;;;;;;;13.30;89.26;99950.41;10540598;27;20052;-62
2023/10/21 21:43:00;;;;;;;6.35;1.20;;;;;;;13.39;86.66;99947.28;10553179;27;20054;-63
2023/10/21 21:48:22;;;;;;;7.68;1.55;;;;;;;13.39;87.83;99950.75;10548191;27;20039;-62
2023/10/21 21:53:44;;;;;;;8.05;1.60;;;;;;;13.37;89.10;99962.16;10539629;27;20055;-63
2023/10/21 21:59:05;;;;;;;3.75;0.98;;;;;;;13.42;87.12;99967.94;10543003;27;20133;-63
2023/10/21 22:04:30;;;;;;;5.30;1.58;;;;;;;13.36;86.44;99966.50;10527558;27;20042;-63
2023/10/21 22:09:53;;;;;;;5.35;1.40;;;;;;;13.36;88.47;99957.88;10554601;27;20100;-62
2023/10/21 22:15:15;;;;;;;3.72;1.23;;;;;;;13.34;87.86;99950.16;10548124;27;20047;-63
2023/10/21 22:20:38;;;;;;;5.75;1.58;;;;;;;13.35;88.21;99969.19;10546504;27;20040;-62
2023/10/21 22:26:02;;;;;;;3.65;1.40;;;;;;;13.30;87.60;99958.19;10551782;27;20573;-63
2023/10/21 22:31:24;;;;;;;6.15;1.50;;;;;;;13.34;88.00;99963.16;10550077;28;20063;-63
2023/10/21 22:36:45;;;;;;;7.15;1.58;;;;;;;13.35;87.37;99956.22;10545734;28;20039;-62
2023/10/21 22:42:07;;;;;;;4.22;1.42;;;;;;;13.36;87.01;99950.06;10562134;28;20114;-62
2023/10/21 22:47:31;;;;;;;5.32;1.05;;;;;;;13.39;87.20;99942.94;10539316;28;20472;-63
2023/10/21 22:52:53;;;;;;;6.05;1.40;;;;;;;13.39;87.61;99953.34;10555084;28;20074;-63
2023/10/21 22:58:14;;;;;;;6.65;1.52;;;;;;;13.40;87.04;99949.00;10545642;28;20040;-63
2023/10/21 23:03:36;;;;;;;8.40;1.35;;;;;;;13.36;86.79;99947.47;10543773;28;20044;-63
2023/10/21 23:08:58;;;;;;;4.43;1.25;;;;;;;13.36;87.62;99947.47;10539646;28;20044;-63
2023/10/21 23:14:19;;;;;;;8.95;1.30;;;;;;;13.33;87.75;99963.25;10554879;28;20043;-63
2023/10/21 23:19:42;;;;;;;6.18;1.23;;;;;;;13.28;87.33;99954.84;10540929;28;20028;-63
2023/10/21 23:25:10;;;;;;;5.60;1.40;;;;;;;13.21;88.11;99953.50;10542987;28;20048;-63
2023/10/21 23:30:31;;;;;;;5.90;1.30;;;;;;;13.21;87.92;99958.69;10539993;28;20055;-62
2023/10/21 23:36:00;;;;;;;4.60;1.40;;;;;;;13.18;88.06;99953.69;10546084;28;20054;-62
2023/10/21 23:41:22;;;;;;;5.95;1.45;;;;;;;13.16;88.20;99952.94;10558659;27;20059;-63
2023/10/21 23:46:44;;;;;;;5.90;1.30;;;;;;;13.15;88.02;99959.06;10570235;27;20414;-63
2023/10/21 23:52:06;;;;;;;4.25;1.00;;;;;;;13.10;87.37;99962.75;10551942;27;20047;-63
2023/10/21 23:57:27;;;;;;;3.55;1.10;;;;;;;13.07;87.46;99964.66;10557634;27;20559;-63
